createdAt,value
2018-09-05T00:01:33.884Z,19.00
2018-09-05T00:06:37.710Z,18.90
2018-09-05T00:11:41.303Z,18.90
2018-09-05T00:16:45.373Z,18.80
2018-09-05T00:21:49.229Z,18.70
2018-09-05T00:26:52.861Z,18.60
2018-09-05T00:31:56.644Z,18.60
2018-09-05T00:37:00.402Z,18.60
2018-09-05T00:42:04.159Z,18.50
2018-09-05T00:47:08.230Z,18.50
2018-09-05T00:52:12.421Z,18.50
2018-09-05T00:57:17.221Z,18.40
2018-09-05T01:02:20.986Z,18.40
2018-09-05T01:07:29.355Z,18.30
2018-09-05T01:12:33.087Z,18.10
2018-09-05T01:17:36.668Z,18.00
2018-09-05T01:22:40.387Z,17.90
2018-09-05T01:27:44.081Z,17.80
2018-09-05T01:32:47.799Z,17.80
2018-09-05T01:37:51.576Z,17.80
2018-09-05T01:42:55.224Z,17.80
2018-09-05T01:47:58.832Z,17.70
2018-09-05T01:53:02.523Z,17.60
2018-09-05T01:58:07.670Z,17.50
2018-09-05T02:03:11.664Z,17.50
2018-09-05T02:08:17.233Z,17.40
2018-09-05T02:13:22.704Z,17.40
2018-09-05T02:18:26.629Z,17.30
2018-09-05T02:23:30.261Z,17.20
2018-09-05T02:28:34.169Z,17.20
2018-09-05T02:33:40.653Z,17.10
2018-09-05T02:38:44.762Z,17.10
2018-09-05T02:43:53.627Z,17.10
2018-09-05T02:48:58.845Z,17.10
2018-09-05T02:54:02.459Z,17.10
2018-09-05T02:59:06.219Z,17.10
2018-09-05T03:04:10.392Z,17.10
2018-09-05T03:09:14.063Z,17.00
2018-09-05T03:14:18.387Z,17.00
2018-09-05T03:19:22.304Z,17.10
2018-09-05T03:24:26.122Z,17.00
2018-09-05T03:29:29.789Z,17.00
2018-09-05T03:34:33.684Z,16.90
2018-09-05T03:39:37.432Z,16.90
2018-09-05T03:44:41.482Z,17.00
2018-09-05T03:49:47.316Z,17.00
2018-09-05T03:54:51.950Z,17.00
2018-09-05T03:59:55.719Z,16.90
2018-09-05T04:05:01.979Z,16.70
2018-09-05T04:10:05.834Z,16.70
2018-09-05T04:15:10.729Z,16.60
2018-09-05T04:20:31.068Z,16.50
2018-09-05T04:25:34.833Z,16.50
2018-09-05T04:30:39.041Z,16.40
2018-09-05T04:35:44.596Z,16.40
2018-09-05T04:40:48.302Z,16.30
2018-09-05T04:45:52.005Z,16.30
2018-09-05T04:50:55.661Z,16.30
2018-09-05T04:55:59.592Z,16.30
2018-09-05T05:01:03.580Z,16.20
2018-09-05T05:06:08.028Z,16.20
2018-09-05T05:11:11.663Z,16.20
2018-09-05T05:16:15.482Z,16.30
2018-09-05T05:21:19.254Z,16.40
2018-09-05T05:26:22.852Z,16.50
2018-09-05T05:31:26.870Z,17.10
2018-09-05T05:36:32.073Z,17.00
2018-09-05T05:41:36.408Z,16.90
2018-09-05T05:46:40.198Z,16.90
2018-09-05T05:51:43.867Z,16.90
2018-09-05T05:56:47.906Z,16.90
2018-09-05T06:02:06.687Z,17.00
2018-09-05T06:07:10.340Z,17.10
2018-09-05T06:12:15.756Z,17.20
2018-09-05T06:17:20.465Z,17.30
2018-09-05T06:22:24.080Z,17.30
2018-09-05T06:27:28.023Z,17.40
2018-09-05T06:32:34.972Z,17.50
2018-09-05T06:37:38.791Z,17.70
2018-09-05T06:42:42.873Z,17.90
2018-09-05T06:47:47.375Z,18.00
2018-09-05T06:52:51.093Z,18.20
2018-09-05T06:57:55.498Z,18.30
2018-09-05T07:02:59.843Z,18.50
2018-09-05T07:08:03.414Z,18.50
2018-09-05T07:13:07.063Z,18.80
2018-09-05T07:18:10.752Z,18.90
2018-09-05T07:23:14.412Z,19.10
2018-09-05T07:28:18.131Z,19.20
2018-09-05T07:33:21.829Z,19.30
2018-09-05T07:38:25.740Z,19.50
2018-09-05T07:43:29.518Z,19.40
2018-09-05T07:48:33.183Z,19.50
2018-09-05T07:53:36.836Z,19.50
2018-09-05T07:58:41.231Z,19.50
2018-09-05T08:03:44.872Z,19.60
2018-09-05T08:08:48.485Z,19.80
2018-09-05T08:13:52.539Z,19.90
2018-09-05T08:18:56.771Z,20.20
2018-09-05T08:24:00.421Z,20.50
2018-09-05T08:29:04.127Z,21.00
2018-09-05T08:34:07.806Z,23.90
2018-09-05T08:39:13.627Z,25.70
2018-09-05T08:44:18.191Z,26.30
2018-09-05T08:49:21.805Z,27.40
2018-09-05T08:54:25.688Z,27.20
2018-09-05T08:59:29.412Z,26.70
2018-09-05T09:04:33.580Z,25.40
2018-09-05T09:09:37.131Z,24.10
2018-09-05T09:14:41.296Z,23.10
2018-09-05T09:19:45.068Z,22.70
2018-09-05T09:24:50.186Z,22.80
2018-09-05T09:29:54.095Z,23.20
2018-09-05T09:34:58.664Z,23.70
2018-09-05T09:40:02.300Z,23.80
2018-09-05T09:45:06.446Z,23.80
2018-09-05T09:50:10.095Z,23.40
2018-09-05T09:55:13.854Z,23.40
2018-09-05T10:00:22.701Z,23.60
2018-09-05T10:05:32.029Z,23.60
2018-09-05T10:10:40.945Z,23.80
2018-09-05T10:15:49.947Z,23.80
2018-09-05T10:20:53.910Z,23.80
2018-09-05T10:25:57.569Z,24.00
2018-09-05T10:31:01.436Z,24.50
2018-09-05T10:36:05.347Z,24.50
2018-09-05T10:41:10.216Z,24.80
2018-09-05T10:46:14.196Z,25.00
2018-09-05T10:51:23.500Z,25.40
2018-09-05T10:56:27.217Z,25.40
2018-09-05T11:01:31.156Z,25.50
2018-09-05T11:06:35.379Z,25.70
2018-09-05T11:11:39.434Z,25.80
2018-09-05T11:16:43.131Z,26.10
2018-09-05T11:21:46.752Z,25.90
2018-09-05T11:26:50.531Z,26.20
2018-09-05T11:31:54.195Z,26.20
2018-09-05T11:36:58.201Z,26.50
2018-09-05T11:42:01.800Z,26.60
2018-09-05T11:47:05.567Z,27.10
2018-09-05T11:52:09.217Z,26.60
2018-09-05T11:57:12.936Z,27.90
2018-09-05T12:02:17.522Z,28.50
2018-09-05T12:07:21.227Z,28.50
2018-09-05T12:12:25.460Z,28.70
2018-09-05T12:17:29.351Z,29.10
2018-09-05T12:22:33.536Z,29.50
2018-09-05T12:27:37.268Z,29.80
2018-09-05T12:32:41.273Z,29.90
2018-09-05T12:37:45.677Z,30.30
2018-09-05T12:42:49.515Z,30.60
2018-09-05T12:47:53.252Z,31.10
2018-09-05T12:52:58.108Z,31.60
2018-09-05T12:58:02.033Z,31.80
2018-09-05T13:03:06.847Z,31.90
2018-09-05T13:08:10.884Z,32.10
2018-09-05T13:13:14.603Z,32.30
2018-09-05T13:18:18.335Z,32.70
2018-09-05T13:23:22.214Z,32.60
2018-09-05T13:28:26.278Z,32.70
2018-09-05T13:33:29.998Z,32.70
2018-09-05T13:38:36.120Z,33.30
2018-09-05T13:43:40.014Z,33.60
2018-09-05T13:48:44.600Z,32.90
2018-09-05T13:53:48.607Z,32.20
2018-09-05T13:58:52.460Z,31.90
2018-09-05T14:03:56.354Z,31.30
2018-09-05T14:09:00.263Z,31.20
2018-09-05T14:14:04.021Z,30.80
2018-09-05T14:19:07.708Z,30.50
2018-09-05T14:24:14.247Z,30.50
2018-09-05T14:29:18.133Z,31.00
2018-09-05T14:34:22.881Z,32.00
2018-09-05T14:39:26.772Z,32.20
2018-09-05T14:44:31.896Z,31.60
2018-09-05T14:49:35.732Z,31.50
2018-09-05T14:54:39.776Z,31.80
2018-09-05T14:59:44.716Z,31.80
2018-09-05T15:04:48.846Z,32.40
2018-09-05T15:09:52.734Z,32.20
2018-09-05T15:14:57.060Z,31.90
2018-09-05T15:20:02.120Z,31.80
2018-09-05T15:25:06.457Z,31.20
2018-09-05T15:30:10.914Z,30.80
2018-09-05T15:35:14.861Z,31.30
2018-09-05T15:40:19.396Z,31.20
2018-09-05T15:45:23.444Z,30.80
2018-09-05T15:55:40.468Z,30.60
2018-09-05T16:00:44.846Z,30.90
2018-09-05T16:05:48.939Z,30.80
2018-09-05T16:10:56.092Z,30.90
2018-09-05T16:16:00.969Z,30.70
2018-09-05T16:21:05.608Z,30.70
2018-09-05T16:26:09.434Z,30.70
2018-09-05T16:31:13.805Z,30.50
2018-09-05T16:36:17.657Z,30.50
2018-09-05T16:41:22.250Z,30.60
2018-09-05T16:46:26.003Z,30.30
2018-09-05T16:51:30.400Z,30.20
2018-09-05T16:56:34.807Z,30.20
2018-09-05T17:01:38.579Z,30.30
2018-09-05T17:06:42.516Z,30.10
2018-09-05T17:11:46.242Z,29.90
2018-09-05T17:17:23.526Z,29.80
2018-09-05T17:22:28.860Z,29.70
2018-09-05T17:27:34.232Z,29.50
2018-09-05T17:32:38.021Z,29.30
2018-09-05T17:37:41.752Z,29.10
2018-09-05T17:42:45.481Z,28.90
2018-09-05T17:47:49.473Z,28.60
2018-09-05T17:52:53.427Z,28.30
2018-09-05T17:57:57.203Z,28.00
2018-09-05T18:03:01.575Z,27.70
2018-09-05T18:08:06.090Z,27.50
2018-09-05T18:13:09.769Z,27.20
2018-09-05T18:18:13.646Z,26.90
2018-09-05T18:23:17.346Z,26.70
2018-09-05T18:28:21.197Z,26.40
2018-09-05T18:33:25.093Z,26.10
2018-09-05T18:38:29.138Z,25.90
2018-09-05T18:43:33.371Z,25.30
2018-09-05T18:48:38.127Z,25.30
2018-09-05T18:53:42.480Z,24.90
2018-09-05T18:58:46.720Z,24.80
2018-09-05T19:34:11.360Z,23.40
2018-09-05T19:39:17.480Z,23.30
2018-09-05T19:44:21.672Z,23.20
2018-09-05T19:54:31.568Z,23.20
2018-09-05T20:04:41.372Z,23.00
2018-09-05T20:30:01.390Z,22.60
2018-09-05T20:35:08.236Z,22.60
2018-09-05T20:40:13.677Z,22.60
2018-09-05T20:45:19.492Z,22.60
2018-09-05T20:50:27.765Z,22.30
2018-09-05T20:55:35.118Z,22.20
2018-09-05T21:00:38.849Z,22.00
2018-09-05T21:05:42.926Z,22.00
2018-09-05T21:10:46.707Z,21.90
2018-09-05T21:15:50.389Z,21.70
2018-09-05T21:20:58.776Z,21.60
2018-09-05T21:26:02.510Z,21.50
2018-09-05T21:31:06.567Z,21.40
2018-09-05T21:36:11.293Z,21.40
2018-09-05T21:41:15.107Z,21.30
2018-09-05T21:46:18.831Z,21.00
2018-09-05T21:51:22.992Z,20.90
2018-09-05T21:56:26.730Z,20.80
2018-09-05T22:01:30.552Z,20.80
2018-09-05T22:06:34.344Z,20.80
2018-09-05T22:11:37.990Z,20.80
2018-09-05T22:16:41.672Z,20.70
2018-09-05T22:21:45.415Z,20.60
2018-09-05T22:26:49.084Z,20.60
2018-09-05T22:31:53.790Z,20.50
2018-09-05T22:42:13.947Z,20.40
2018-09-05T22:47:29.611Z,20.30
2018-09-05T22:58:10.884Z,20.20
2018-09-05T23:03:44.913Z,20.20
2018-09-05T23:08:48.552Z,19.70
2018-09-05T23:14:03.487Z,19.80
2018-09-05T23:19:43.217Z,19.90
2018-09-05T23:24:47.096Z,20.00
2018-09-05T23:29:50.978Z,20.00
2018-09-05T23:34:54.644Z,20.00
2018-09-05T23:39:58.417Z,20.10
2018-09-05T23:45:02.033Z,20.10
2018-09-05T23:50:05.876Z,20.10
2018-09-05T23:55:09.618Z,20.10
